createdAt,value
2023-03-13T00:01:32.166Z,4.97
2023-03-13T00:04:00.771Z,4.90
2023-03-13T00:06:33.365Z,5.93
2023-03-13T00:09:02.407Z,4.97
2023-03-13T00:11:32.753Z,5.73
2023-03-13T00:14:03.454Z,4.50
2023-03-13T00:16:32.451Z,5.40
2023-03-13T00:19:00.823Z,4.80
2023-03-13T00:21:30.681Z,4.93
2023-03-13T00:24:00.233Z,5.07
2023-03-13T00:26:30.240Z,5.00
2023-03-13T00:29:00.522Z,4.23
2023-03-13T00:31:30.941Z,4.83
2023-03-13T00:34:01.229Z,4.30
2023-03-13T00:36:31.772Z,4.53
2023-03-13T00:39:00.764Z,4.87
2023-03-13T00:41:31.029Z,4.43
2023-03-13T00:44:01.112Z,4.20
2023-03-13T00:46:31.472Z,4.47
2023-03-13T00:48:59.935Z,5.20
2023-03-13T00:51:29.469Z,5.43
2023-03-13T00:54:00.499Z,5.30
2023-03-13T00:56:29.846Z,4.67
2023-03-13T00:58:58.441Z,4.37
2023-03-13T01:01:30.815Z,5.83
2023-03-13T01:04:02.012Z,4.57
2023-03-13T01:06:34.094Z,4.97
2023-03-13T01:09:03.037Z,4.63
2023-03-13T01:11:33.282Z,4.83
2023-03-13T01:14:05.130Z,5.03
2023-03-13T01:16:36.450Z,4.87
2023-03-13T01:19:07.093Z,5.87
2023-03-13T01:21:35.536Z,6.43
2023-03-13T01:24:05.679Z,5.60
2023-03-13T01:26:34.280Z,4.83
2023-03-13T01:29:02.859Z,4.87
2023-03-13T01:31:33.573Z,4.53
2023-03-13T01:34:05.480Z,4.43
2023-03-13T01:36:34.665Z,4.57
2023-03-13T01:39:03.157Z,5.63
2023-03-13T01:41:32.391Z,5.40
2023-03-13T01:44:01.214Z,4.87
2023-03-13T01:46:38.045Z,4.17
2023-03-13T01:49:24.951Z,4.70
2023-03-13T01:52:05.403Z,5.07
2023-03-13T01:54:41.850Z,4.73
2023-03-13T01:57:18.072Z,4.40
2023-03-13T01:59:50.251Z,4.87
2023-03-13T02:02:19.183Z,5.63
2023-03-13T02:04:53.100Z,5.67
2023-03-13T02:07:25.438Z,4.57
2023-03-13T02:09:57.027Z,5.03
2023-03-13T02:12:30.547Z,4.60
2023-03-13T02:15:00.252Z,4.40
2023-03-13T02:17:29.103Z,4.90
2023-03-13T02:19:58.832Z,4.87
2023-03-13T02:22:33.102Z,4.47
2023-03-13T02:25:09.084Z,3.97
2023-03-13T02:27:39.201Z,4.67
2023-03-13T02:30:10.070Z,4.23
2023-03-13T02:32:38.870Z,3.70
2023-03-13T02:35:11.607Z,4.33
2023-03-13T02:37:42.055Z,4.10
2023-03-13T02:40:19.395Z,4.13
2023-03-13T02:42:52.098Z,4.40
2023-03-13T02:45:20.921Z,4.17
2023-03-13T02:47:50.035Z,4.00
2023-03-13T02:50:19.236Z,4.83
2023-03-13T02:52:50.735Z,3.97
2023-03-13T02:55:24.230Z,3.77
2023-03-13T02:57:54.040Z,3.40
2023-03-13T03:00:26.766Z,4.07
2023-03-13T03:02:56.620Z,4.40
2023-03-13T03:05:25.258Z,4.40
2023-03-13T03:07:53.901Z,3.80
2023-03-13T03:10:22.362Z,3.60
2023-03-13T03:12:51.346Z,4.20
2023-03-13T03:15:22.831Z,3.97
2023-03-13T03:17:51.457Z,4.37
2023-03-13T03:20:19.922Z,4.40
2023-03-13T03:22:48.783Z,3.80
2023-03-13T03:25:17.881Z,4.17
2023-03-13T03:27:46.463Z,4.83
2023-03-13T03:30:15.597Z,3.83
2023-03-13T03:32:45.582Z,3.70
2023-03-13T03:35:14.185Z,4.10
2023-03-13T03:37:42.801Z,3.53
2023-03-13T03:40:12.914Z,3.80
2023-03-13T03:42:41.325Z,4.43
2023-03-13T03:45:10.695Z,4.43
2023-03-13T03:47:39.077Z,4.03
2023-03-13T03:50:11.300Z,3.83
2023-03-13T03:52:48.376Z,3.83
2023-03-13T03:55:17.434Z,3.97
2023-03-13T03:57:45.932Z,3.90
2023-03-13T04:00:21.212Z,3.60
2023-03-13T04:02:54.001Z,3.70
2023-03-13T04:05:24.311Z,3.70
2023-03-13T04:07:53.080Z,4.40
2023-03-13T04:10:21.451Z,3.73
2023-03-13T04:12:49.832Z,3.97
2023-03-13T04:15:18.457Z,3.67
2023-03-13T04:17:46.995Z,3.70
2023-03-13T04:20:16.489Z,3.53
2023-03-13T04:22:46.551Z,3.77
2023-03-13T04:25:16.718Z,4.37
2023-03-13T04:27:45.946Z,4.33
2023-03-13T04:30:17.585Z,4.00
2023-03-13T04:33:05.476Z,3.73
2023-03-13T04:35:52.808Z,4.43
2023-03-13T04:38:52.044Z,4.03
2023-03-13T04:41:43.647Z,4.33
2023-03-13T04:44:38.687Z,4.47
2023-03-13T04:47:20.570Z,4.93
2023-03-13T04:50:12.264Z,5.13
2023-03-13T04:52:52.578Z,4.50
2023-03-13T04:55:38.769Z,5.00
2023-03-13T04:58:25.847Z,5.03
2023-03-13T05:01:07.312Z,4.27
2023-03-13T05:03:54.081Z,4.30
2023-03-13T05:06:51.705Z,4.63
2023-03-13T05:09:32.102Z,4.53
2023-03-13T05:12:22.648Z,3.97
2023-03-13T05:15:07.653Z,4.60
2023-03-13T05:18:08.074Z,4.07
2023-03-13T05:20:49.172Z,3.57
2023-03-13T05:23:28.523Z,3.83
2023-03-13T05:26:23.015Z,3.60
2023-03-13T05:29:25.293Z,3.97
2023-03-13T05:32:01.410Z,4.87
2023-03-13T05:34:58.904Z,4.03
2023-03-13T05:37:46.391Z,3.97
2023-03-13T05:40:18.379Z,3.20
2023-03-13T05:43:02.823Z,4.33
2023-03-13T05:45:55.655Z,3.37
2023-03-13T05:48:38.076Z,3.63
2023-03-13T05:51:17.585Z,3.47
2023-03-13T05:54:14.974Z,3.57
2023-03-13T05:57:04.035Z,3.77
2023-03-13T06:00:06.189Z,3.20
2023-03-13T06:03:13.884Z,3.37
2023-03-13T06:05:45.810Z,3.47
2023-03-13T06:08:26.750Z,3.10
2023-03-13T06:10:55.263Z,3.13
2023-03-13T06:13:23.876Z,3.40
2023-03-13T06:15:56.073Z,2.47
2023-03-13T06:18:59.724Z,3.70
2023-03-13T06:21:28.051Z,3.00
2023-03-13T06:23:56.529Z,3.30
2023-03-13T06:26:26.179Z,2.80
2023-03-13T06:28:54.788Z,2.77
2023-03-13T06:31:23.386Z,3.37
2023-03-13T06:33:54.671Z,2.90
2023-03-13T06:36:25.934Z,2.97
2023-03-13T06:38:54.505Z,3.07
2023-03-13T06:41:22.957Z,2.90
2023-03-13T06:43:51.566Z,2.70
2023-03-13T06:46:22.278Z,3.00
2023-03-13T06:48:50.968Z,2.97
2023-03-13T06:51:21.188Z,2.50
2023-03-13T06:53:52.897Z,2.90
2023-03-13T06:56:22.096Z,2.90
2023-03-13T06:58:51.149Z,2.53
2023-03-13T07:01:19.782Z,2.43
2023-03-13T07:03:49.389Z,2.47
2023-03-13T07:06:18.561Z,3.17
2023-03-13T07:08:47.601Z,2.77
2023-03-13T07:11:17.513Z,3.57
2023-03-13T07:13:46.013Z,3.10
2023-03-13T07:16:15.409Z,2.97
2023-03-13T07:18:44.973Z,2.77
2023-03-13T07:21:13.426Z,3.23
2023-03-13T07:23:42.253Z,3.03
2023-03-13T07:26:13.573Z,3.50
2023-03-13T07:28:44.276Z,3.13
2023-03-13T07:31:15.658Z,3.10
2023-03-13T07:33:44.966Z,3.20
2023-03-13T07:36:15.553Z,3.50
2023-03-13T07:38:44.640Z,3.70
2023-03-13T07:41:14.441Z,3.30
2023-03-13T07:43:44.411Z,2.97
2023-03-13T07:46:14.468Z,3.00
2023-03-13T07:48:44.408Z,3.30
2023-03-13T07:51:16.571Z,2.97
2023-03-13T07:53:47.403Z,3.30
2023-03-13T07:56:17.044Z,3.00
2023-03-13T07:58:47.675Z,2.90
2023-03-13T08:01:18.283Z,4.00
2023-03-13T08:03:49.386Z,3.23
2023-03-13T08:06:20.058Z,2.90
2023-03-13T08:08:49.142Z,2.50
2023-03-13T08:11:19.594Z,3.27
2023-03-13T08:13:50.683Z,2.83
2023-03-13T08:16:20.675Z,3.20
2023-03-13T08:18:50.779Z,3.27
2023-03-13T08:21:21.138Z,2.87
2023-03-13T08:23:49.710Z,2.90
2023-03-13T08:26:20.762Z,2.77
2023-03-13T08:28:56.082Z,3.37
2023-03-13T08:31:26.026Z,3.20
2023-03-13T08:33:54.762Z,3.17
2023-03-13T08:36:25.232Z,3.07
2023-03-13T08:38:55.204Z,3.40
2023-03-13T08:41:25.725Z,3.03
2023-03-13T08:43:56.399Z,3.57
2023-03-13T08:46:25.811Z,3.07
2023-03-13T08:48:55.635Z,3.10
2023-03-13T08:51:25.849Z,2.70
2023-03-13T08:53:56.129Z,3.23
2023-03-13T08:56:25.805Z,3.30
2023-03-13T08:58:57.261Z,3.20
2023-03-13T09:01:31.256Z,3.40
2023-03-13T09:04:03.455Z,2.83
2023-03-13T09:06:32.601Z,3.53
2023-03-13T09:09:01.133Z,2.83
2023-03-13T09:11:29.878Z,3.60
2023-03-13T09:14:00.383Z,3.20
2023-03-13T09:16:30.840Z,3.20
2023-03-13T09:19:00.569Z,3.07
2023-03-13T09:21:30.767Z,2.57
2023-03-13T09:23:59.579Z,2.50
2023-03-13T09:26:29.208Z,3.30
2023-03-13T09:28:59.242Z,2.47
2023-03-13T09:31:37.414Z,3.33
2023-03-13T09:34:05.956Z,3.00
2023-03-13T09:36:34.481Z,2.70
2023-03-13T09:39:02.942Z,2.40
2023-03-13T09:41:37.961Z,2.50
2023-03-13T09:44:14.551Z,2.77
2023-03-13T09:46:49.482Z,2.20
2023-03-13T09:49:29.318Z,2.47
2023-03-13T09:52:05.547Z,2.30
2023-03-13T09:54:39.546Z,2.40
2023-03-13T09:57:16.622Z,2.30
2023-03-13T09:59:52.837Z,2.07
2023-03-13T10:02:29.931Z,2.97
2023-03-13T10:05:16.558Z,2.17
2023-03-13T10:07:45.410Z,2.17
2023-03-13T10:10:18.212Z,2.27
2023-03-13T10:12:48.706Z,1.97
2023-03-13T10:15:31.969Z,2.07
2023-03-13T10:18:05.526Z,2.63
2023-03-13T10:20:36.725Z,2.73
2023-03-13T10:23:15.694Z,1.90
2023-03-13T10:25:44.143Z,1.73
2023-03-13T10:28:14.496Z,1.70
2023-03-13T10:30:49.521Z,2.13
2023-03-13T10:33:21.968Z,2.10
2023-03-13T10:36:06.932Z,2.13
2023-03-13T10:38:46.497Z,2.70
2023-03-13T10:41:38.606Z,1.70
2023-03-13T10:44:16.314Z,2.17
2023-03-13T10:46:48.988Z,2.00
2023-03-13T10:49:19.924Z,1.63
2023-03-13T10:51:50.356Z,1.60
2023-03-13T10:54:25.836Z,1.73
2023-03-13T10:57:10.515Z,1.80
2023-03-13T10:59:43.294Z,1.97
2023-03-13T11:02:24.033Z,1.53
2023-03-13T11:04:53.949Z,1.67
2023-03-13T11:07:28.079Z,1.70
2023-03-13T11:10:00.586Z,1.50
2023-03-13T11:12:29.505Z,1.50
2023-03-13T11:14:59.298Z,1.40
2023-03-13T11:17:38.746Z,1.70
2023-03-13T11:20:16.814Z,1.63
2023-03-13T11:22:55.048Z,1.53
2023-03-13T11:25:36.734Z,1.70
2023-03-13T11:28:31.334Z,1.43
2023-03-13T11:31:10.987Z,1.03
2023-03-13T11:33:53.346Z,1.17
2023-03-13T11:36:27.694Z,1.37
2023-03-13T11:39:04.453Z,0.97
2023-03-13T11:41:44.537Z,1.33
2023-03-13T11:44:25.248Z,1.77
2023-03-13T11:47:14.274Z,1.23
2023-03-13T11:50:02.680Z,1.03
2023-03-13T11:52:49.528Z,1.40
2023-03-13T11:55:26.706Z,0.93
2023-03-13T11:58:06.949Z,1.13
2023-03-13T12:00:40.232Z,1.30
2023-03-13T12:03:17.819Z,0.70
2023-03-13T12:05:52.770Z,0.97
2023-03-13T12:08:26.703Z,1.57
2023-03-13T12:11:06.540Z,1.30
2023-03-13T12:13:39.521Z,1.20
2023-03-13T12:16:13.700Z,1.57
2023-03-13T12:18:45.221Z,1.20
2023-03-13T12:21:21.228Z,1.43
2023-03-13T12:23:59.011Z,0.90
2023-03-13T12:26:35.696Z,1.23
2023-03-13T12:29:13.616Z,1.13
2023-03-13T12:31:46.616Z,1.10
2023-03-13T12:34:21.937Z,1.27
2023-03-13T12:36:56.862Z,1.03
2023-03-13T12:39:34.589Z,1.00
2023-03-13T12:42:18.426Z,1.13
2023-03-13T12:44:47.432Z,0.90
2023-03-13T12:47:23.597Z,1.20
2023-03-13T12:50:17.940Z,0.93
2023-03-13T12:53:04.588Z,1.17
2023-03-13T12:55:56.424Z,0.80
2023-03-13T12:58:31.515Z,0.93
2023-03-13T13:01:05.587Z,1.30
2023-03-13T13:03:37.940Z,1.27
2023-03-13T13:06:11.724Z,0.73
2023-03-13T13:08:44.088Z,0.80
2023-03-13T13:11:50.199Z,0.90
2023-03-13T13:14:52.006Z,0.90
2023-03-13T13:17:25.946Z,0.90
2023-03-13T13:19:55.165Z,0.87
2023-03-13T13:22:52.752Z,0.87
2023-03-13T13:25:33.649Z,0.60
2023-03-13T13:28:34.029Z,0.77
2023-03-13T13:31:03.357Z,1.00
2023-03-13T13:33:41.256Z,0.77
2023-03-13T13:36:42.128Z,1.37
2023-03-13T13:39:36.868Z,1.17
2023-03-13T13:42:42.040Z,1.30
2023-03-13T13:45:27.848Z,1.03
2023-03-13T13:48:22.745Z,0.80
2023-03-13T13:51:36.599Z,1.20
2023-03-13T13:54:18.029Z,1.20
2023-03-13T13:56:49.797Z,0.90
2023-03-13T13:59:34.255Z,0.73
2023-03-13T14:02:31.800Z,0.70
2023-03-13T14:05:06.662Z,0.90
2023-03-13T14:07:49.082Z,0.50
2023-03-13T14:10:27.274Z,0.70
2023-03-13T14:12:57.990Z,0.70
2023-03-13T14:15:28.118Z,0.73
2023-03-13T14:18:01.030Z,0.97
2023-03-13T14:20:33.326Z,1.00
2023-03-13T14:23:03.898Z,1.37
2023-03-13T14:25:44.808Z,1.10
2023-03-13T14:28:25.293Z,0.87
2023-03-13T14:30:57.937Z,1.10
2023-03-13T14:33:28.726Z,0.90
2023-03-13T14:35:57.946Z,1.00
2023-03-13T14:38:30.064Z,0.93
2023-03-13T14:40:58.715Z,0.80
2023-03-13T14:43:34.832Z,1.20
2023-03-13T14:46:15.840Z,1.20
2023-03-13T14:48:46.073Z,1.17
2023-03-13T14:51:22.489Z,1.03
2023-03-13T14:53:58.933Z,1.20
2023-03-13T14:56:36.837Z,1.10
2023-03-13T14:59:10.333Z,1.70
2023-03-13T15:01:38.682Z,0.93
2023-03-13T15:04:08.646Z,1.13
2023-03-13T15:06:37.201Z,1.47
2023-03-13T15:09:21.176Z,1.37
2023-03-13T15:11:58.935Z,1.20
2023-03-13T15:14:39.542Z,1.53
2023-03-13T15:17:17.705Z,1.40
2023-03-13T15:19:52.404Z,1.60
2023-03-13T15:22:28.178Z,1.53
2023-03-13T15:25:06.085Z,1.60
2023-03-13T15:27:35.916Z,1.20
2023-03-13T15:30:05.329Z,1.20
2023-03-13T15:32:36.051Z,1.27
2023-03-13T15:35:22.767Z,1.70
2023-03-13T15:37:51.589Z,2.13
2023-03-13T15:40:20.821Z,1.50
2023-03-13T15:42:49.341Z,2.10
2023-03-13T15:45:18.095Z,1.53
2023-03-13T15:47:48.975Z,1.77
2023-03-13T15:50:22.527Z,1.53
2023-03-13T15:52:51.212Z,1.40
2023-03-13T15:55:19.773Z,2.13
2023-03-13T15:57:50.663Z,1.23
2023-03-13T16:00:22.915Z,2.00
2023-03-13T16:02:51.872Z,1.50
2023-03-13T16:05:21.713Z,1.70
2023-03-13T16:07:50.231Z,1.20
2023-03-13T16:10:23.852Z,1.57
2023-03-13T16:12:53.872Z,1.30
2023-03-13T16:15:22.608Z,1.73
2023-03-13T16:17:51.289Z,2.53
2023-03-13T16:20:23.821Z,1.73
2023-03-13T16:22:53.761Z,1.70
2023-03-13T16:25:23.238Z,1.97
2023-03-13T16:27:53.579Z,1.80
2023-03-13T16:30:25.033Z,1.90
2023-03-13T16:32:53.612Z,2.23
2023-03-13T16:35:24.229Z,1.60
2023-03-13T16:37:52.739Z,1.60
2023-03-13T16:40:23.292Z,1.60
2023-03-13T16:42:51.930Z,1.50
2023-03-13T16:45:20.728Z,1.57
2023-03-13T16:47:50.702Z,1.67
2023-03-13T16:50:25.293Z,1.60
2023-03-13T16:52:54.826Z,1.77
2023-03-13T16:55:28.333Z,2.10
2023-03-13T16:57:57.276Z,1.97
2023-03-13T17:00:27.495Z,1.77
2023-03-13T17:02:57.528Z,1.87
2023-03-13T17:05:28.457Z,2.00
2023-03-13T17:07:57.018Z,2.03
2023-03-13T17:10:28.501Z,2.13
2023-03-13T17:12:57.545Z,2.47
2023-03-13T17:15:27.881Z,2.30
2023-03-13T17:17:56.512Z,2.03
2023-03-13T17:20:28.310Z,1.97
2023-03-13T17:22:57.373Z,3.13
2023-03-13T17:25:26.248Z,2.50
2023-03-13T17:27:55.165Z,3.00
2023-03-13T17:30:26.071Z,3.60
2023-03-13T17:32:54.704Z,3.17
2023-03-13T17:35:24.273Z,2.10
2023-03-13T17:37:54.351Z,2.73
2023-03-13T17:40:24.695Z,2.53
2023-03-13T17:42:53.107Z,2.50
2023-03-13T17:45:22.879Z,3.37
2023-03-13T17:47:51.375Z,2.30
2023-03-13T17:50:22.470Z,2.53
2023-03-13T17:52:51.538Z,2.80
2023-03-13T17:55:21.696Z,2.60
2023-03-13T17:57:50.202Z,2.40
2023-03-13T18:00:24.473Z,2.43
2023-03-13T18:02:53.073Z,2.27
2023-03-13T18:05:21.898Z,2.33
2023-03-13T18:07:50.877Z,2.67
2023-03-13T18:10:23.391Z,2.23
2023-03-13T18:12:52.937Z,2.80
2023-03-13T18:15:26.972Z,2.50
2023-03-13T18:17:55.442Z,3.07
2023-03-13T18:20:26.138Z,2.63
2023-03-13T18:22:59.527Z,2.50
2023-03-13T18:25:30.531Z,2.43
2023-03-13T18:27:59.327Z,2.40
2023-03-13T18:30:28.279Z,2.50
2023-03-13T18:32:56.926Z,2.90
2023-03-13T18:35:25.628Z,2.80
2023-03-13T18:37:54.143Z,2.70
2023-03-13T18:40:25.281Z,2.73
2023-03-13T18:42:55.603Z,2.63
2023-03-13T18:45:26.523Z,2.50
2023-03-13T18:47:55.136Z,2.80
2023-03-13T18:50:26.675Z,3.07
2023-03-13T18:52:55.576Z,2.67
2023-03-13T18:55:24.964Z,3.10
2023-03-13T18:57:55.833Z,2.60
2023-03-13T19:00:27.624Z,3.10
2023-03-13T19:02:56.296Z,2.90
2023-03-13T19:05:25.451Z,2.70
2023-03-13T19:07:53.920Z,2.97
2023-03-13T19:10:25.314Z,2.93
2023-03-13T19:12:56.185Z,3.10
2023-03-13T19:15:28.523Z,2.50
2023-03-13T19:17:57.571Z,2.53
2023-03-13T19:20:28.598Z,2.53
2023-03-13T19:23:00.977Z,2.70
2023-03-13T19:25:29.835Z,2.40
2023-03-13T19:27:59.692Z,2.73
2023-03-13T19:30:29.700Z,2.80
2023-03-13T19:32:58.512Z,2.30
2023-03-13T19:35:30.441Z,2.47
2023-03-13T19:37:59.013Z,2.93
2023-03-13T19:40:29.667Z,2.70
2023-03-13T19:42:59.452Z,2.73
2023-03-13T19:45:27.877Z,2.83
2023-03-13T19:47:56.451Z,4.10
2023-03-13T19:50:27.785Z,2.83
2023-03-13T19:52:56.504Z,2.83
2023-03-13T19:55:24.943Z,3.40
2023-03-13T19:57:53.413Z,3.20
2023-03-13T20:00:25.416Z,2.90
2023-03-13T20:02:55.361Z,2.53
2023-03-13T20:05:24.523Z,3.10
2023-03-13T20:07:55.470Z,3.10
2023-03-13T20:10:24.504Z,2.87
2023-03-13T20:12:53.757Z,2.80
2023-03-13T20:15:23.675Z,3.43
2023-03-13T20:17:52.308Z,3.57
2023-03-13T20:20:21.054Z,2.80
2023-03-13T20:22:49.617Z,3.00
2023-03-13T20:25:18.176Z,3.40
2023-03-13T20:27:46.600Z,3.10
2023-03-13T20:30:15.149Z,3.40
2023-03-13T20:32:57.052Z,2.83
2023-03-13T20:35:29.296Z,2.60
2023-03-13T20:37:59.862Z,3.00
2023-03-13T20:40:28.668Z,3.27
2023-03-13T20:42:58.364Z,3.40
2023-03-13T20:45:28.475Z,2.90
2023-03-13T20:47:58.885Z,2.53
2023-03-13T20:50:27.486Z,2.87
2023-03-13T20:52:56.561Z,2.30
2023-03-13T20:55:24.995Z,3.20
2023-03-13T20:57:55.828Z,2.57
2023-03-13T21:00:24.508Z,3.10
2023-03-13T21:02:54.384Z,4.13
2023-03-13T21:05:24.360Z,3.87
2023-03-13T21:07:52.888Z,3.30
2023-03-13T21:10:21.332Z,2.90
2023-03-13T21:12:50.046Z,2.87
2023-03-13T21:15:18.588Z,3.20
2023-03-13T21:17:46.978Z,3.20
2023-03-13T21:20:15.907Z,3.00
2023-03-13T21:22:45.765Z,2.50
2023-03-13T21:25:14.513Z,3.07
2023-03-13T21:27:44.853Z,3.00
2023-03-13T21:30:15.498Z,3.10
2023-03-13T21:32:44.106Z,3.10
2023-03-13T21:35:13.394Z,3.90
2023-03-13T21:37:42.921Z,3.80
2023-03-13T21:40:14.123Z,2.80
2023-03-13T21:42:43.557Z,2.63
2023-03-13T21:45:13.014Z,2.47
2023-03-13T21:47:41.671Z,4.07
2023-03-13T21:50:11.330Z,3.33
2023-03-13T21:52:42.351Z,3.00
2023-03-13T21:55:14.105Z,2.93
2023-03-13T21:57:42.588Z,2.40
2023-03-13T22:00:14.310Z,2.90
2023-03-13T22:02:43.525Z,2.67
2023-03-13T22:05:12.621Z,3.03
2023-03-13T22:07:41.082Z,3.00
2023-03-13T22:10:10.635Z,2.67
2023-03-13T22:12:40.505Z,2.17
2023-03-13T22:15:11.130Z,2.77
2023-03-13T22:17:39.742Z,2.57
2023-03-13T22:20:10.190Z,2.97
2023-03-13T22:22:38.577Z,2.80
2023-03-13T22:25:07.645Z,2.80
2023-03-13T22:27:36.529Z,2.07
2023-03-13T22:30:07.885Z,2.33
2023-03-13T22:32:36.367Z,2.30
2023-03-13T22:35:05.471Z,2.90
2023-03-13T22:37:33.911Z,3.60
2023-03-13T22:40:02.559Z,2.90
2023-03-13T22:42:30.912Z,2.97
2023-03-13T22:44:59.250Z,2.30
2023-03-13T22:47:29.106Z,3.00
2023-03-13T22:49:57.490Z,2.90
2023-03-13T22:52:30.773Z,2.93
2023-03-13T22:54:59.255Z,2.97
2023-03-13T22:57:29.273Z,2.87
2023-03-13T22:59:59.231Z,2.77
2023-03-13T23:02:32.046Z,3.30
2023-03-13T23:05:01.382Z,2.80
2023-03-13T23:07:32.461Z,2.40
2023-03-13T23:10:00.895Z,2.10
2023-03-13T23:12:30.989Z,2.20
2023-03-13T23:15:02.114Z,2.93
2023-03-13T23:17:34.244Z,3.50
2023-03-13T23:20:05.185Z,2.60
2023-03-13T23:22:34.884Z,2.50
2023-03-13T23:25:03.298Z,2.50
2023-03-13T23:27:32.190Z,2.70
2023-03-13T23:30:04.272Z,2.23
2023-03-13T23:32:37.845Z,3.03
2023-03-13T23:35:07.701Z,2.53
2023-03-13T23:37:36.735Z,2.83
2023-03-13T23:40:10.416Z,2.90
2023-03-13T23:42:38.894Z,2.57
2023-03-13T23:45:09.257Z,2.10
2023-03-13T23:47:39.121Z,2.80
2023-03-13T23:50:07.775Z,2.73
2023-03-13T23:52:36.696Z,2.80
2023-03-13T23:55:06.544Z,2.77
2023-03-13T23:57:37.674Z,2.70
